sensor_id;sensor_type;location;lat;lon;timestamp;P1;durP1;ratioP1;P2;durP2;ratioP2
18853;SDS011;9556;49.374;19.446;2024-02-26T00:00:29;6.47;;;2.20;;
18853;SDS011;9556;49.374;19.446;2024-02-26T00:02:57;2.83;;;1.40;;
18853;SDS011;9556;49.374;19.446;2024-02-26T00:05:25;2.83;;;1.40;;
18853;SDS011;9556;49.374;19.446;2024-02-26T00:07:52;3.88;;;1.52;;
18853;SDS011;9556;49.374;19.446;2024-02-26T00:10:21;2.42;;;1.55;;
18853;SDS011;9556;49.374;19.446;2024-02-26T00:12:49;3.08;;;1.83;;
18853;SDS011;9556;49.374;19.446;2024-02-26T00:15:16;3.47;;;2.17;;
18853;SDS011;9556;49.374;19.446;2024-02-26T00:17:46;3.13;;;1.80;;
18853;SDS011;9556;49.374;19.446;2024-02-26T00:20:21;3.40;;;1.55;;
18853;SDS011;9556;49.374;19.446;2024-02-26T00:22:49;2.78;;;1.50;;
18853;SDS011;9556;49.374;19.446;2024-02-26T00:25:17;2.53;;;1.15;;
18853;SDS011;9556;49.374;19.446;2024-02-26T00:27:44;2.80;;;1.50;;
18853;SDS011;9556;49.374;19.446;2024-02-26T00:30:11;2.38;;;1.40;;
18853;SDS011;9556;49.374;19.446;2024-02-26T00:32:38;4.10;;;1.80;;
18853;SDS011;9556;49.374;19.446;2024-02-26T00:35:06;2.70;;;1.65;;
18853;SDS011;9556;49.374;19.446;2024-02-26T00:37:34;3.60;;;1.50;;
18853;SDS011;9556;49.374;19.446;2024-02-26T00:40:03;3.92;;;1.63;;
18853;SDS011;9556;49.374;19.446;2024-02-26T00:42:30;5.07;;;1.50;;
18853;SDS011;9556;49.374;19.446;2024-02-26T00:44:58;3.55;;;1.63;;
18853;SDS011;9556;49.374;19.446;2024-02-26T00:47:25;4.13;;;1.73;;
18853;SDS011;9556;49.374;19.446;2024-02-26T00:49:52;1.83;;;1.40;;
18853;SDS011;9556;49.374;19.446;2024-02-26T00:52:19;5.50;;;1.63;;
18853;SDS011;9556;49.374;19.446;2024-02-26T00:54:46;3.50;;;1.50;;
18853;SDS011;9556;49.374;19.446;2024-02-26T00:57:15;3.65;;;1.58;;
18853;SDS011;9556;49.374;19.446;2024-02-26T00:59:42;2.75;;;1.50;;
18853;SDS011;9556;49.374;19.446;2024-02-26T01:02:09;2.70;;;1.35;;
18853;SDS011;9556;49.374;19.446;2024-02-26T01:04:36;2.47;;;1.30;;
18853;SDS011;9556;49.374;19.446;2024-02-26T01:07:03;2.65;;;1.40;;
18853;SDS011;9556;49.374;19.446;2024-02-26T01:09:30;2.63;;;1.40;;
18853;SDS011;9556;49.374;19.446;2024-02-26T01:11:58;3.97;;;1.92;;
18853;SDS011;9556;49.374;19.446;2024-02-26T01:14:26;3.88;;;2.35;;
18853;SDS011;9556;49.374;19.446;2024-02-26T01:16:53;3.22;;;2.00;;
18853;SDS011;9556;49.374;19.446;2024-02-26T01:19:21;3.22;;;1.50;;
18853;SDS011;9556;49.374;19.446;2024-02-26T01:21:48;2.05;;;1.15;;
18853;SDS011;9556;49.374;19.446;2024-02-26T01:24:15;3.15;;;1.55;;
18853;SDS011;9556;49.374;19.446;2024-02-26T01:26:42;3.05;;;1.48;;
18853;SDS011;9556;49.374;19.446;2024-02-26T01:29:09;2.22;;;1.50;;
18853;SDS011;9556;49.374;19.446;2024-02-26T01:31:38;1.85;;;1.38;;
18853;SDS011;9556;49.374;19.446;2024-02-26T01:34:05;2.35;;;1.38;;
18853;SDS011;9556;49.374;19.446;2024-02-26T01:36:32;1.77;;;1.15;;
18853;SDS011;9556;49.374;19.446;2024-02-26T01:38:59;2.47;;;1.48;;
18853;SDS011;9556;49.374;19.446;2024-02-26T01:41:28;2.03;;;1.50;;
18853;SDS011;9556;49.374;19.446;2024-02-26T01:43:55;2.70;;;1.52;;
18853;SDS011;9556;49.374;19.446;2024-02-26T01:46:23;3.15;;;1.30;;
18853;SDS011;9556;49.374;19.446;2024-02-26T01:48:51;2.25;;;1.30;;
18853;SDS011;9556;49.374;19.446;2024-02-26T01:51:18;2.35;;;1.40;;
18853;SDS011;9556;49.374;19.446;2024-02-26T01:53:46;4.03;;;1.52;;
18853;SDS011;9556;49.374;19.446;2024-02-26T01:56:13;2.65;;;1.48;;
18853;SDS011;9556;49.374;19.446;2024-02-26T01:58:41;2.38;;;1.60;;
18853;SDS011;9556;49.374;19.446;2024-02-26T02:01:08;1.88;;;1.20;;
18853;SDS011;9556;49.374;19.446;2024-02-26T02:03:36;2.60;;;1.58;;
18853;SDS011;9556;49.374;19.446;2024-02-26T02:06:04;3.83;;;1.60;;
18853;SDS011;9556;49.374;19.446;2024-02-26T02:08:32;2.47;;;1.50;;
18853;SDS011;9556;49.374;19.446;2024-02-26T02:11:01;2.72;;;1.48;;
18853;SDS011;9556;49.374;19.446;2024-02-26T02:13:28;3.13;;;2.00;;
18853;SDS011;9556;49.374;19.446;2024-02-26T02:15:55;2.65;;;2.15;;
18853;SDS011;9556;49.374;19.446;2024-02-26T02:18:22;2.25;;;1.67;;
18853;SDS011;9556;49.374;19.446;2024-02-26T02:20:51;2.00;;;1.40;;
18853;SDS011;9556;49.374;19.446;2024-02-26T02:23:21;2.63;;;1.30;;
18853;SDS011;9556;49.374;19.446;2024-02-26T02:25:49;2.90;;;1.48;;
18853;SDS011;9556;49.374;19.446;2024-02-26T02:28:16;2.42;;;1.50;;
18853;SDS011;9556;49.374;19.446;2024-02-26T02:30:43;2.65;;;1.60;;
18853;SDS011;9556;49.374;19.446;2024-02-26T02:33:10;2.47;;;1.35;;
18853;SDS011;9556;49.374;19.446;2024-02-26T02:35:37;2.60;;;1.58;;
18853;SDS011;9556;49.374;19.446;2024-02-26T02:38:05;1.70;;;1.30;;
18853;SDS011;9556;49.374;19.446;2024-02-26T02:40:33;4.32;;;1.55;;
18853;SDS011;9556;49.374;19.446;2024-02-26T02:43:00;3.38;;;1.33;;
18853;SDS011;9556;49.374;19.446;2024-02-26T02:45:27;2.05;;;1.30;;
18853;SDS011;9556;49.374;19.446;2024-02-26T02:47:54;2.15;;;1.40;;
18853;SDS011;9556;49.374;19.446;2024-02-26T02:50:21;1.83;;;1.40;;
18853;SDS011;9556;49.374;19.446;2024-02-26T02:52:48;2.05;;;1.45;;
18853;SDS011;9556;49.374;19.446;2024-02-26T02:55:17;2.50;;;1.40;;
18853;SDS011;9556;49.374;19.446;2024-02-26T02:57:45;2.80;;;1.40;;
18853;SDS011;9556;49.374;19.446;2024-02-26T03:00:12;3.00;;;1.42;;
18853;SDS011;9556;49.374;19.446;2024-02-26T03:02:39;3.78;;;1.40;;
18853;SDS011;9556;49.374;19.446;2024-02-26T03:05:08;1.95;;;1.20;;
18853;SDS011;9556;49.374;19.446;2024-02-26T03:07:35;2.33;;;1.70;;
18853;SDS011;9556;49.374;19.446;2024-02-26T03:10:02;2.33;;;1.70;;
18853;SDS011;9556;49.374;19.446;2024-02-26T03:12:31;3.03;;;1.88;;
18853;SDS011;9556;49.374;19.446;2024-02-26T03:14:59;5.07;;;2.40;;
18853;SDS011;9556;49.374;19.446;2024-02-26T03:17:27;3.80;;;1.80;;
18853;SDS011;9556;49.374;19.446;2024-02-26T03:19:55;1.77;;;1.25;;
18853;SDS011;9556;49.374;19.446;2024-02-26T03:22:22;1.63;;;1.25;;
18853;SDS011;9556;49.374;19.446;2024-02-26T03:24:49;2.00;;;1.50;;
18853;SDS011;9556;49.374;19.446;2024-02-26T03:27:16;2.17;;;1.40;;
18853;SDS011;9556;49.374;19.446;2024-02-26T03:29:45;2.70;;;1.50;;
18853;SDS011;9556;49.374;19.446;2024-02-26T03:32:13;1.90;;;1.48;;
18853;SDS011;9556;49.374;19.446;2024-02-26T03:34:40;2.10;;;1.50;;
18853;SDS011;9556;49.374;19.446;2024-02-26T03:37:07;2.67;;;1.40;;
18853;SDS011;9556;49.374;19.446;2024-02-26T03:39:35;1.73;;;1.38;;
18853;SDS011;9556;49.374;19.446;2024-02-26T03:42:03;2.83;;;1.67;;
18853;SDS011;9556;49.374;19.446;2024-02-26T03:44:30;1.90;;;1.40;;
18853;SDS011;9556;49.374;19.446;2024-02-26T03:46:59;2.55;;;1.40;;
18853;SDS011;9556;49.374;19.446;2024-02-26T03:49:26;2.00;;;1.40;;
18853;SDS011;9556;49.374;19.446;2024-02-26T03:51:53;1.90;;;1.50;;
18853;SDS011;9556;49.374;19.446;2024-02-26T03:54:20;3.38;;;1.60;;
18853;SDS011;9556;49.374;19.446;2024-02-26T03:56:47;2.10;;;1.50;;
18853;SDS011;9556;49.374;19.446;2024-02-26T03:59:14;2.22;;;1.60;;
18853;SDS011;9556;49.374;19.446;2024-02-26T04:01:44;2.65;;;1.50;;
18853;SDS011;9556;49.374;19.446;2024-02-26T04:04:13;2.22;;;1.55;;
18853;SDS011;9556;49.374;19.446;2024-02-26T04:06:43;3.58;;;1.50;;
18853;SDS011;9556;49.374;19.446;2024-02-26T04:09:11;2.10;;;1.60;;
18853;SDS011;9556;49.374;19.446;2024-02-26T04:11:38;3.30;;;2.50;;
18853;SDS011;9556;49.374;19.446;2024-02-26T04:14:05;4.15;;;2.78;;
18853;SDS011;9556;49.374;19.446;2024-02-26T04:16:33;6.28;;;3.63;;
18853;SDS011;9556;49.374;19.446;2024-02-26T04:19:01;2.58;;;1.75;;
18853;SDS011;9556;49.374;19.446;2024-02-26T04:21:30;3.35;;;2.15;;
18853;SDS011;9556;49.374;19.446;2024-02-26T04:23:57;3.20;;;2.05;;
18853;SDS011;9556;49.374;19.446;2024-02-26T04:26:26;2.83;;;1.88;;
18853;SDS011;9556;49.374;19.446;2024-02-26T04:28:53;2.90;;;1.83;;
18853;SDS011;9556;49.374;19.446;2024-02-26T04:31:20;2.58;;;1.60;;
18853;SDS011;9556;49.374;19.446;2024-02-26T04:33:48;2.38;;;1.63;;
18853;SDS011;9556;49.374;19.446;2024-02-26T04:36:15;3.25;;;1.88;;
18853;SDS011;9556;49.374;19.446;2024-02-26T04:38:43;2.60;;;1.60;;
18853;SDS011;9556;49.374;19.446;2024-02-26T04:41:11;3.08;;;1.58;;
18853;SDS011;9556;49.374;19.446;2024-02-26T04:43:38;5.72;;;1.73;;
18853;SDS011;9556;49.374;19.446;2024-02-26T04:46:06;1.80;;;1.58;;
18853;SDS011;9556;49.374;19.446;2024-02-26T04:48:34;2.85;;;1.90;;
18853;SDS011;9556;49.374;19.446;2024-02-26T04:51:01;2.28;;;1.63;;
18853;SDS011;9556;49.374;19.446;2024-02-26T04:53:28;3.08;;;1.70;;
18853;SDS011;9556;49.374;19.446;2024-02-26T04:55:57;2.00;;;1.58;;
18853;SDS011;9556;49.374;19.446;2024-02-26T04:58:24;2.00;;;1.50;;
18853;SDS011;9556;49.374;19.446;2024-02-26T05:00:51;2.30;;;1.45;;
18853;SDS011;9556;49.374;19.446;2024-02-26T05:03:18;5.53;;;1.60;;
18853;SDS011;9556;49.374;19.446;2024-02-26T05:05:45;2.30;;;1.40;;
18853;SDS011;9556;49.374;19.446;2024-02-26T05:08:12;2.38;;;1.60;;
18853;SDS011;9556;49.374;19.446;2024-02-26T05:10:40;2.65;;;1.58;;
18853;SDS011;9556;49.374;19.446;2024-02-26T05:13:09;2.50;;;1.58;;
18853;SDS011;9556;49.374;19.446;2024-02-26T05:15:36;5.60;;;1.77;;
18853;SDS011;9556;49.374;19.446;2024-02-26T05:18:04;3.55;;;1.75;;
18853;SDS011;9556;49.374;19.446;2024-02-26T05:20:32;6.75;;;2.53;;
18853;SDS011;9556;49.374;19.446;2024-02-26T05:23:01;4.38;;;2.10;;
18853;SDS011;9556;49.374;19.446;2024-02-26T05:25:28;3.47;;;2.00;;
18853;SDS011;9556;49.374;19.446;2024-02-26T05:27:56;6.60;;;2.40;;
18853;SDS011;9556;49.374;19.446;2024-02-26T05:30:24;5.35;;;1.60;;
18853;SDS011;9556;49.374;19.446;2024-02-26T05:32:53;3.28;;;1.73;;
18853;SDS011;9556;49.374;19.446;2024-02-26T05:35:20;3.25;;;1.73;;
18853;SDS011;9556;49.374;19.446;2024-02-26T05:37:47;6.80;;;1.90;;
18853;SDS011;9556;49.374;19.446;2024-02-26T05:40:14;2.90;;;1.63;;
18853;SDS011;9556;49.374;19.446;2024-02-26T05:42:41;5.93;;;1.70;;
18853;SDS011;9556;49.374;19.446;2024-02-26T05:45:10;4.75;;;1.73;;
18853;SDS011;9556;49.374;19.446;2024-02-26T05:47:38;3.47;;;1.95;;
18853;SDS011;9556;49.374;19.446;2024-02-26T05:50:08;3.38;;;1.65;;
18853;SDS011;9556;49.374;19.446;2024-02-26T05:52:36;3.00;;;1.73;;
18853;SDS011;9556;49.374;19.446;2024-02-26T05:55:03;5.30;;;1.70;;
18853;SDS011;9556;49.374;19.446;2024-02-26T05:57:31;6.78;;;1.85;;
18853;SDS011;9556;49.374;19.446;2024-02-26T05:59:58;5.10;;;2.03;;
18853;SDS011;9556;49.374;19.446;2024-02-26T06:02:28;4.80;;;2.40;;
18853;SDS011;9556;49.374;19.446;2024-02-26T06:04:57;6.93;;;3.13;;
18853;SDS011;9556;49.374;19.446;2024-02-26T06:07:24;12.27;;;3.95;;
18853;SDS011;9556;49.374;19.446;2024-02-26T06:09:52;9.77;;;2.88;;
18853;SDS011;9556;49.374;19.446;2024-02-26T06:12:19;10.57;;;3.08;;
18853;SDS011;9556;49.374;19.446;2024-02-26T06:14:46;7.50;;;2.80;;
18853;SDS011;9556;49.374;19.446;2024-02-26T06:17:13;7.65;;;2.90;;
18853;SDS011;9556;49.374;19.446;2024-02-26T06:19:41;10.25;;;3.03;;
18853;SDS011;9556;49.374;19.446;2024-02-26T06:22:10;7.38;;;3.50;;
18853;SDS011;9556;49.374;19.446;2024-02-26T06:24:37;9.23;;;4.03;;
18853;SDS011;9556;49.374;19.446;2024-02-26T06:27:04;9.52;;;4.47;;
18853;SDS011;9556;49.374;19.446;2024-02-26T06:29:31;8.27;;;3.25;;
18853;SDS011;9556;49.374;19.446;2024-02-26T06:31:58;6.78;;;3.05;;
18853;SDS011;9556;49.374;19.446;2024-02-26T06:34:25;4.93;;;2.80;;
18853;SDS011;9556;49.374;19.446;2024-02-26T06:36:52;4.53;;;2.50;;
18853;SDS011;9556;49.374;19.446;2024-02-26T06:39:21;4.75;;;2.72;;
18853;SDS011;9556;49.374;19.446;2024-02-26T06:41:48;5.97;;;2.35;;
18853;SDS011;9556;49.374;19.446;2024-02-26T06:44:15;6.72;;;2.60;;
18853;SDS011;9556;49.374;19.446;2024-02-26T06:46:42;5.18;;;2.28;;
18853;SDS011;9556;49.374;19.446;2024-02-26T06:49:09;5.70;;;3.65;;
18853;SDS011;9556;49.374;19.446;2024-02-26T06:51:37;8.05;;;2.40;;
18853;SDS011;9556;49.374;19.446;2024-02-26T06:54:04;5.93;;;2.22;;
18853;SDS011;9556;49.374;19.446;2024-02-26T06:56:32;9.05;;;2.70;;
18853;SDS011;9556;49.374;19.446;2024-02-26T06:58:59;5.78;;;3.30;;
18853;SDS011;9556;49.374;19.446;2024-02-26T07:01:27;4.53;;;2.60;;
18853;SDS011;9556;49.374;19.446;2024-02-26T07:03:55;5.35;;;3.13;;
18853;SDS011;9556;49.374;19.446;2024-02-26T07:06:23;7.13;;;3.50;;
18853;SDS011;9556;49.374;19.446;2024-02-26T07:08:50;7.05;;;3.60;;
18853;SDS011;9556;49.374;19.446;2024-02-26T07:11:17;6.70;;;3.47;;
18853;SDS011;9556;49.374;19.446;2024-02-26T07:13:46;4.70;;;2.80;;
18853;SDS011;9556;49.374;19.446;2024-02-26T07:16:14;4.85;;;2.40;;
18853;SDS011;9556;49.374;19.446;2024-02-26T07:18:42;6.35;;;2.70;;
18853;SDS011;9556;49.374;19.446;2024-02-26T07:21:09;4.40;;;2.83;;
18853;SDS011;9556;49.374;19.446;2024-02-26T07:23:36;6.25;;;3.15;;
18853;SDS011;9556;49.374;19.446;2024-02-26T07:26:03;5.10;;;3.60;;
18853;SDS011;9556;49.374;19.446;2024-02-26T07:28:30;6.68;;;3.50;;
18853;SDS011;9556;49.374;19.446;2024-02-26T07:30:59;6.55;;;2.60;;
18853;SDS011;9556;49.374;19.446;2024-02-26T07:33:26;4.68;;;2.50;;
18853;SDS011;9556;49.374;19.446;2024-02-26T07:35:53;4.60;;;2.58;;
18853;SDS011;9556;49.374;19.446;2024-02-26T07:38:20;4.30;;;2.60;;
18853;SDS011;9556;49.374;19.446;2024-02-26T07:40:48;5.40;;;3.50;;
18853;SDS011;9556;49.374;19.446;2024-02-26T07:43:15;6.97;;;4.40;;
18853;SDS011;9556;49.374;19.446;2024-02-26T07:45:42;14.32;;;9.05;;
18853;SDS011;9556;49.374;19.446;2024-02-26T07:48:11;16.48;;;10.40;;
18853;SDS011;9556;49.374;19.446;2024-02-26T07:50:39;7.60;;;3.72;;
18853;SDS011;9556;49.374;19.446;2024-02-26T07:53:06;8.60;;;5.40;;
18853;SDS011;9556;49.374;19.446;2024-02-26T07:55:33;13.00;;;7.82;;
18853;SDS011;9556;49.374;19.446;2024-02-26T07:58:00;5.10;;;3.45;;
18853;SDS011;9556;49.374;19.446;2024-02-26T08:00:28;4.07;;;3.00;;
18853;SDS011;9556;49.374;19.446;2024-02-26T08:02:55;8.45;;;4.20;;
18853;SDS011;9556;49.374;19.446;2024-02-26T08:05:23;10.73;;;2.83;;
18853;SDS011;9556;49.374;19.446;2024-02-26T08:07:51;5.43;;;3.15;;
18853;SDS011;9556;49.374;19.446;2024-02-26T08:10:18;4.35;;;2.80;;
18853;SDS011;9556;49.374;19.446;2024-02-26T08:12:45;4.63;;;3.00;;
18853;SDS011;9556;49.374;19.446;2024-02-26T08:15:13;7.50;;;3.20;;
18853;SDS011;9556;49.374;19.446;2024-02-26T08:17:40;6.22;;;2.70;;
18853;SDS011;9556;49.374;19.446;2024-02-26T08:20:07;8.82;;;3.28;;
18853;SDS011;9556;49.374;19.446;2024-02-26T08:22:36;7.47;;;5.00;;
18853;SDS011;9556;49.374;19.446;2024-02-26T08:25:04;8.85;;;5.38;;
18853;SDS011;9556;49.374;19.446;2024-02-26T08:27:34;11.05;;;6.68;;
18853;SDS011;9556;49.374;19.446;2024-02-26T08:30:01;6.00;;;3.30;;
18853;SDS011;9556;49.374;19.446;2024-02-26T08:32:28;8.68;;;3.35;;
18853;SDS011;9556;49.374;19.446;2024-02-26T08:34:55;4.97;;;2.95;;
18853;SDS011;9556;49.374;19.446;2024-02-26T08:37:22;5.80;;;3.35;;
18853;SDS011;9556;49.374;19.446;2024-02-26T08:39:51;6.10;;;3.10;;
18853;SDS011;9556;49.374;19.446;2024-02-26T08:42:18;6.07;;;2.88;;
18853;SDS011;9556;49.374;19.446;2024-02-26T08:44:46;4.35;;;2.67;;
18853;SDS011;9556;49.374;19.446;2024-02-26T08:47:13;5.55;;;2.80;;
18853;SDS011;9556;49.374;19.446;2024-02-26T08:49:42;5.88;;;3.20;;
18853;SDS011;9556;49.374;19.446;2024-02-26T08:52:09;5.70;;;3.30;;
18853;SDS011;9556;49.374;19.446;2024-02-26T08:54:36;6.95;;;3.42;;
18853;SDS011;9556;49.374;19.446;2024-02-26T08:57:05;4.40;;;3.05;;
18853;SDS011;9556;49.374;19.446;2024-02-26T08:59:32;4.57;;;2.95;;
18853;SDS011;9556;49.374;19.446;2024-02-26T09:01:59;5.22;;;3.38;;
18853;SDS011;9556;49.374;19.446;2024-02-26T09:04:26;4.47;;;3.13;;
18853;SDS011;9556;49.374;19.446;2024-02-26T09:06:53;4.47;;;2.70;;
18853;SDS011;9556;49.374;19.446;2024-02-26T09:09:21;4.63;;;3.13;;
18853;SDS011;9556;49.374;19.446;2024-02-26T09:11:50;6.93;;;2.88;;
18853;SDS011;9556;49.374;19.446;2024-02-26T09:14:18;5.20;;;3.05;;
18853;SDS011;9556;49.374;19.446;2024-02-26T09:16:45;6.10;;;3.40;;
18853;SDS011;9556;49.374;19.446;2024-02-26T09:19:13;5.78;;;3.70;;
18853;SDS011;9556;49.374;19.446;2024-02-26T09:21:42;12.32;;;7.80;;
18853;SDS011;9556;49.374;19.446;2024-02-26T09:24:09;6.18;;;3.72;;
18853;SDS011;9556;49.374;19.446;2024-02-26T09:26:36;9.55;;;3.45;;
18853;SDS011;9556;49.374;19.446;2024-02-26T09:29:03;42.65;;;21.30;;
18853;SDS011;9556;49.374;19.446;2024-02-26T09:31:32;28.27;;;13.13;;
18853;SDS011;9556;49.374;19.446;2024-02-26T09:34:00;13.90;;;6.90;;
18853;SDS011;9556;49.374;19.446;2024-02-26T09:36:27;21.42;;;11.07;;
18853;SDS011;9556;49.374;19.446;2024-02-26T09:38:54;24.35;;;13.57;;
18853;SDS011;9556;49.374;19.446;2024-02-26T09:41:21;10.25;;;6.10;;
18853;SDS011;9556;49.374;19.446;2024-02-26T09:43:48;10.02;;;5.03;;
18853;SDS011;9556;49.374;19.446;2024-02-26T09:46:17;7.03;;;4.50;;
18853;SDS011;9556;49.374;19.446;2024-02-26T09:48:46;6.78;;;4.57;;
18853;SDS011;9556;49.374;19.446;2024-02-26T09:51:14;11.05;;;5.90;;
18853;SDS011;9556;49.374;19.446;2024-02-26T09:53:42;7.20;;;4.43;;
18853;SDS011;9556;49.374;19.446;2024-02-26T09:56:11;7.68;;;3.92;;
18853;SDS011;9556;49.374;19.446;2024-02-26T09:58:39;9.93;;;4.10;;
18853;SDS011;9556;49.374;19.446;2024-02-26T10:01:07;10.43;;;4.30;;
18853;SDS011;9556;49.374;19.446;2024-02-26T10:03:36;8.23;;;3.97;;
18853;SDS011;9556;49.374;19.446;2024-02-26T10:06:08;11.25;;;7.03;;
18853;SDS011;9556;49.374;19.446;2024-02-26T10:08:35;9.77;;;5.15;;
18853;SDS011;9556;49.374;19.446;2024-02-26T10:11:03;7.35;;;3.92;;
18853;SDS011;9556;49.374;19.446;2024-02-26T10:13:31;10.48;;;4.35;;
18853;SDS011;9556;49.374;19.446;2024-02-26T10:15:58;6.82;;;3.83;;
18853;SDS011;9556;49.374;19.446;2024-02-26T10:18:28;8.23;;;3.97;;
18853;SDS011;9556;49.374;19.446;2024-02-26T10:21:12;8.18;;;4.10;;
18853;SDS011;9556;49.374;19.446;2024-02-26T10:23:41;9.90;;;3.88;;
18853;SDS011;9556;49.374;19.446;2024-02-26T10:26:08;7.13;;;3.95;;
18853;SDS011;9556;49.374;19.446;2024-02-26T10:28:37;8.15;;;4.25;;
18853;SDS011;9556;49.374;19.446;2024-02-26T10:31:04;11.20;;;4.28;;
18853;SDS011;9556;49.374;19.446;2024-02-26T10:33:33;7.50;;;4.05;;
18853;SDS011;9556;49.374;19.446;2024-02-26T10:36:01;8.10;;;4.00;;
18853;SDS011;9556;49.374;19.446;2024-02-26T10:38:30;9.60;;;3.88;;
18853;SDS011;9556;49.374;19.446;2024-02-26T10:40:58;8.95;;;3.85;;
18853;SDS011;9556;49.374;19.446;2024-02-26T10:43:25;9.38;;;4.25;;
18853;SDS011;9556;49.374;19.446;2024-02-26T10:45:54;6.30;;;4.32;;
18853;SDS011;9556;49.374;19.446;2024-02-26T10:48:21;9.15;;;5.60;;
18853;SDS011;9556;49.374;19.446;2024-02-26T10:50:48;15.57;;;6.07;;
18853;SDS011;9556;49.374;19.446;2024-02-26T10:53:20;8.88;;;5.70;;
18853;SDS011;9556;49.374;19.446;2024-02-26T10:55:49;10.07;;;4.40;;
18853;SDS011;9556;49.374;19.446;2024-02-26T10:58:19;7.63;;;4.30;;
18853;SDS011;9556;49.374;19.446;2024-02-26T11:00:47;8.95;;;4.40;;
18853;SDS011;9556;49.374;19.446;2024-02-26T11:03:15;28.83;;;4.43;;
18853;SDS011;9556;49.374;19.446;2024-02-26T11:05:45;6.80;;;3.70;;
18853;SDS011;9556;49.374;19.446;2024-02-26T11:08:13;14.77;;;4.10;;
18853;SDS011;9556;49.374;19.446;2024-02-26T11:10:41;8.20;;;3.88;;
18853;SDS011;9556;49.374;19.446;2024-02-26T11:13:10;9.80;;;4.15;;
18853;SDS011;9556;49.374;19.446;2024-02-26T11:15:39;7.80;;;3.83;;
18853;SDS011;9556;49.374;19.446;2024-02-26T11:18:07;7.00;;;4.20;;
18853;SDS011;9556;49.374;19.446;2024-02-26T11:20:34;10.50;;;4.38;;
18853;SDS011;9556;49.374;19.446;2024-02-26T11:23:05;6.82;;;3.97;;
18853;SDS011;9556;49.374;19.446;2024-02-26T11:25:33;8.35;;;4.40;;
18853;SDS011;9556;49.374;19.446;2024-02-26T11:28:02;6.35;;;3.90;;
18853;SDS011;9556;49.374;19.446;2024-02-26T11:30:32;10.85;;;3.83;;
18853;SDS011;9556;49.374;19.446;2024-02-26T11:33:01;7.88;;;4.32;;
18853;SDS011;9556;49.374;19.446;2024-02-26T11:35:28;9.90;;;3.50;;
18853;SDS011;9556;49.374;19.446;2024-02-26T11:37:56;6.38;;;3.65;;
18853;SDS011;9556;49.374;19.446;2024-02-26T11:40:26;7.43;;;3.97;;
18853;SDS011;9556;49.374;19.446;2024-02-26T11:42:53;7.88;;;3.75;;
18853;SDS011;9556;49.374;19.446;2024-02-26T11:45:47;7.05;;;4.28;;
18853;SDS011;9556;49.374;19.446;2024-02-26T11:48:15;10.20;;;6.05;;
18853;SDS011;9556;49.374;19.446;2024-02-26T11:50:45;9.55;;;5.82;;
18853;SDS011;9556;49.374;19.446;2024-02-26T11:53:22;10.43;;;5.18;;
18853;SDS011;9556;49.374;19.446;2024-02-26T11:58:38;10.60;;;4.30;;
18853;SDS011;9556;49.374;19.446;2024-02-26T12:01:07;8.23;;;4.40;;
18853;SDS011;9556;49.374;19.446;2024-02-26T12:03:54;7.55;;;4.10;;
18853;SDS011;9556;49.374;19.446;2024-02-26T12:06:21;8.07;;;4.00;;
18853;SDS011;9556;49.374;19.446;2024-02-26T12:08:50;13.85;;;4.25;;
18853;SDS011;9556;49.374;19.446;2024-02-26T12:11:17;8.77;;;4.40;;
18853;SDS011;9556;49.374;19.446;2024-02-26T12:13:46;8.20;;;3.95;;
18853;SDS011;9556;49.374;19.446;2024-02-26T12:16:21;11.10;;;4.13;;
18853;SDS011;9556;49.374;19.446;2024-02-26T12:19:02;11.07;;;4.15;;
18853;SDS011;9556;49.374;19.446;2024-02-26T12:21:30;9.88;;;3.95;;
18853;SDS011;9556;49.374;19.446;2024-02-26T12:24:06;8.63;;;3.95;;
18853;SDS011;9556;49.374;19.446;2024-02-26T12:26:33;12.73;;;4.07;;
18853;SDS011;9556;49.374;19.446;2024-02-26T12:29:00;8.65;;;3.95;;
18853;SDS011;9556;49.374;19.446;2024-02-26T12:31:29;7.35;;;4.13;;
18853;SDS011;9556;49.374;19.446;2024-02-26T12:33:57;9.13;;;4.07;;
18853;SDS011;9556;49.374;19.446;2024-02-26T12:36:24;9.45;;;3.95;;
18853;SDS011;9556;49.374;19.446;2024-02-26T12:38:51;9.30;;;4.47;;
18853;SDS011;9556;49.374;19.446;2024-02-26T12:41:18;6.05;;;4.00;;
18853;SDS011;9556;49.374;19.446;2024-02-26T12:43:46;8.07;;;4.85;;
18853;SDS011;9556;49.374;19.446;2024-02-26T12:46:13;11.98;;;7.72;;
18853;SDS011;9556;49.374;19.446;2024-02-26T12:48:43;13.48;;;8.98;;
18853;SDS011;9556;49.374;19.446;2024-02-26T12:51:11;11.27;;;7.57;;
18853;SDS011;9556;49.374;19.446;2024-02-26T12:53:39;16.95;;;11.55;;
18853;SDS011;9556;49.374;19.446;2024-02-26T12:56:06;9.38;;;5.13;;
18853;SDS011;9556;49.374;19.446;2024-02-26T12:58:34;7.65;;;4.70;;
18853;SDS011;9556;49.374;19.446;2024-02-26T13:01:03;9.30;;;5.00;;
18853;SDS011;9556;49.374;19.446;2024-02-26T13:03:30;9.80;;;4.57;;
18853;SDS011;9556;49.374;19.446;2024-02-26T13:05:59;5.68;;;3.92;;
18853;SDS011;9556;49.374;19.446;2024-02-26T13:08:27;6.22;;;4.10;;
18853;SDS011;9556;49.374;19.446;2024-02-26T13:10:54;25.80;;;4.28;;
18853;SDS011;9556;49.374;19.446;2024-02-26T13:13:22;7.70;;;4.53;;
18853;SDS011;9556;49.374;19.446;2024-02-26T13:15:49;7.72;;;4.45;;
18853;SDS011;9556;49.374;19.446;2024-02-26T13:18:16;11.30;;;4.40;;
18853;SDS011;9556;49.374;19.446;2024-02-26T13:20:43;7.05;;;4.35;;
18853;SDS011;9556;49.374;19.446;2024-02-26T13:23:12;8.43;;;4.22;;
18853;SDS011;9556;49.374;19.446;2024-02-26T13:25:40;6.18;;;4.00;;
18853;SDS011;9556;49.374;19.446;2024-02-26T13:28:07;8.10;;;4.47;;
18853;SDS011;9556;49.374;19.446;2024-02-26T13:30:35;7.47;;;4.50;;
18853;SDS011;9556;49.374;19.446;2024-02-26T13:33:09;7.00;;;4.15;;
18853;SDS011;9556;49.374;19.446;2024-02-26T13:35:36;6.93;;;4.20;;
18853;SDS011;9556;49.374;19.446;2024-02-26T13:38:04;8.32;;;4.22;;
18853;SDS011;9556;49.374;19.446;2024-02-26T13:40:33;8.15;;;4.10;;
18853;SDS011;9556;49.374;19.446;2024-02-26T13:43:00;7.13;;;4.03;;
18853;SDS011;9556;49.374;19.446;2024-02-26T13:45:27;8.48;;;4.40;;
18853;SDS011;9556;49.374;19.446;2024-02-26T13:47:55;5.85;;;4.05;;
18853;SDS011;9556;49.374;19.446;2024-02-26T13:50:28;5.50;;;4.20;;
18853;SDS011;9556;49.374;19.446;2024-02-26T13:52:55;5.90;;;4.03;;
18853;SDS011;9556;49.374;19.446;2024-02-26T13:55:23;5.28;;;3.90;;
18853;SDS011;9556;49.374;19.446;2024-02-26T13:57:52;6.97;;;4.10;;
18853;SDS011;9556;49.374;19.446;2024-02-26T14:00:20;6.13;;;3.95;;
18853;SDS011;9556;49.374;19.446;2024-02-26T14:02:47;6.60;;;4.00;;
18853;SDS011;9556;49.374;19.446;2024-02-26T14:05:14;7.22;;;4.20;;
18853;SDS011;9556;49.374;19.446;2024-02-26T14:07:41;6.78;;;4.15;;
18853;SDS011;9556;49.374;19.446;2024-02-26T14:10:09;7.20;;;4.30;;
18853;SDS011;9556;49.374;19.446;2024-02-26T14:12:38;6.43;;;3.92;;
18853;SDS011;9556;49.374;19.446;2024-02-26T14:15:07;7.57;;;3.80;;
18853;SDS011;9556;49.374;19.446;2024-02-26T14:17:35;6.28;;;3.88;;
18853;SDS011;9556;49.374;19.446;2024-02-26T14:20:02;7.78;;;4.40;;
18853;SDS011;9556;49.374;19.446;2024-02-26T14:22:30;6.50;;;3.97;;
18853;SDS011;9556;49.374;19.446;2024-02-26T14:24:57;5.85;;;3.78;;
18853;SDS011;9556;49.374;19.446;2024-02-26T14:27:25;6.43;;;4.30;;
18853;SDS011;9556;49.374;19.446;2024-02-26T14:29:52;6.47;;;4.10;;
18853;SDS011;9556;49.374;19.446;2024-02-26T14:32:21;6.85;;;4.15;;
18853;SDS011;9556;49.374;19.446;2024-02-26T14:34:48;5.97;;;3.97;;
18853;SDS011;9556;49.374;19.446;2024-02-26T14:37:16;7.28;;;4.22;;
18853;SDS011;9556;49.374;19.446;2024-02-26T14:39:43;9.65;;;4.20;;
18853;SDS011;9556;49.374;19.446;2024-02-26T14:42:12;6.13;;;4.03;;
18853;SDS011;9556;49.374;19.446;2024-02-26T14:44:42;4.93;;;3.65;;
18853;SDS011;9556;49.374;19.446;2024-02-26T14:47:09;7.40;;;5.03;;
18853;SDS011;9556;49.374;19.446;2024-02-26T14:49:38;7.28;;;5.00;;
18853;SDS011;9556;49.374;19.446;2024-02-26T14:52:05;8.43;;;5.80;;